Sunflower Gold — JD2460 — position and weather

sailwx.info

Track history (hours):
 
Tides and Currents Weather Stations Pressure Air Temp Water Temp Dewpoint Dewpoint Depression Visibility Wind Speed Wind Dir Waves Ship Positions

Sunflower Gold

Last reported at 2016-Jul-02 01:23 UTC. Time now 2016-Jul-02 02:10 UTC.
Position N 34°42' E 135°17'.

Length 166 m; draft 5.8 m.

Type: Passenger vessel. MMSI: 431000331.

Date/timePositionNaut miles runAvg speedWind from/ knotsBaromVisibWave heightAir tempDewpointWater temp
2016-Jul-02 01:23N 34°42' E 135°17'0 0.0
2016-Jul-02 00:29N 34°42' E 135°17'0 0.0
2016-Jul-01 23:29N 34°42' E 135°17'1 1.1
2016-Jul-01 22:33N 34°41' E 135°18'1514.5
2016-Jul-01 21:33N 34°37' E 135°01'7 0.2
2016-Jun-30 11:23N 34°35' E 134°53'1518.4
2016-Jun-30 10:33N 34°36' E 135°11'7 7.2
2016-Jun-30 09:32N 34°42' E 135°17'0 0.0
2016-Jun-30 08:32N 34°42' E 135°17'0 0.0
2016-Jun-30 07:32N 34°42' E 135°17'0 0.0
2016-Jun-30 06:14N 34°42' E 135°17'0 0.0
2016-Jun-30 05:32N 34°42' E 135°17'0 0.0
2016-Jun-30 04:32N 34°42' E 135°17'0 0.0
2016-Jun-30 03:26N 34°42' E 135°17'0 0.0
2016-Jun-30 02:32N 34°42' E 135°17'0 0.0
2016-Jun-30 01:26N 34°42' E 135°17'0 0.0
2016-Jun-30 00:32N 34°42' E 135°17'0 0.0
2016-Jun-29 23:32N 34°42' E 135°17'0 0.0
2016-Jun-29 22:26N 34°42' E 135°17'0 0.1
2016-Jun-29 21:34N 34°42' E 135°17'1413.6
2016-Jun-29 20:33N 34°37' E 135°02'10 0.3
2016-Jun-28 11:32N 34°35' E 134°50'1818.0
2016-Jun-28 10:33N 34°37' E 135°11'7 6.6
2016-Jun-28 09:28N 34°42' E 135°17'0 0.0
2016-Jun-28 08:22N 34°42' E 135°17'0 0.0
2016-Jun-28 07:28N 34°42' E 135°17'0 0.0
2016-Jun-28 06:22N 34°42' E 135°17'0 0.0
2016-Jun-28 04:28N 34°42' E 135°17'0 0.0
2016-Jun-28 03:28N 34°42' E 135°17'0 0.0
2016-Jun-28 02:28N 34°42' E 135°17'0 0.0
2016-Jun-28 01:28N 34°42' E 135°17'0 0.0
2016-Jun-28 00:22N 34°42' E 135°17'0 0.0
2016-Jun-27 23:28N 34°42' E 135°17'0 0.0
2016-Jun-27 22:28N 34°42' E 135°17'0 0.0
2016-Jun-27 21:33N 34°42' E 135°17'1211.8
2016-Jun-27 20:33N 34°34' E 135°06'1917.8
2016-Jun-27 19:30N 34°30' E 134°44'8 0.3
2016-Jun-26 13:03N 34°35' E 134°51'1122.5
2016-Jun-26 12:33N 34°36' E 135°05'1110.6
2016-Jun-26 11:28N 34°42' E 135°17'0 0.0
2016-Jun-26 10:28N 34°42' E 135°17'0 0.0
2016-Jun-26 09:28N 34°42' E 135°17'0 0.0
2016-Jun-26 08:28N 34°42' E 135°17'0 0.0
2016-Jun-26 07:28N 34°42' E 135°17'0 0.0
2016-Jun-26 06:22N 34°42' E 135°17'0 0.0
2016-Jun-26 05:28N 34°42' E 135°17'0 0.0
2016-Jun-26 04:22N 34°42' E 135°17'0 0.0
2016-Jun-26 03:28N 34°42' E 135°17'0 0.0
2016-Jun-26 02:22N 34°42' E 135°17'0 0.0
2016-Jun-26 01:28N 34°42' E 135°17'0 0.0
2016-Jun-26 00:28N 34°42' E 135°17'0 0.0
2016-Jun-25 23:28N 34°42' E 135°17'1 0.8
2016-Jun-25 22:33N 34°42' E 135°18'1313.2
2016-Jun-25 21:33N 34°35' E 135°04'9 0.3
2016-Jun-24 12:10N 34°35' E 134°53'1219.6
2016-Jun-24 11:33N 34°36' E 135°08'10 9.6
2016-Jun-24 10:33N 34°42' E 135°17'0 0.0
2016-Jun-24 09:24N 34°42' E 135°17'0 0.0
2016-Jun-24 08:24N 34°42' E 135°17'0 0.0
2016-Jun-24 07:30N 34°42' E 135°17'0 0.0
2016-Jun-24 04:30N 34°42' E 135°17'0 0.0
2016-Jun-24 03:30N 34°42' E 135°17'0 0.0
2016-Jun-24 02:24N 34°42' E 135°17'0 0.0
2016-Jun-24 01:30N 34°42' E 135°17'0 0.0
2016-Jun-24 00:24N 34°42' E 135°17'0 0.0
2016-Jun-23 23:30N 34°42' E 135°17'0 0.0
2016-Jun-23 22:30N 34°42' E 135°17'0 0.0
2016-Jun-23 21:33N 34°42' E 135°17'1110.7
2016-Jun-23 20:33N 34°35' E 135°07'12 0.4
2016-Jun-22 11:18N 34°35' E 134°53'1520.7
2016-Jun-22 10:33N 34°36' E 135°11'7 3.4
2016-Jun-22 08:28N 34°42' E 135°17'0 0.0
2016-Jun-22 05:29N 34°42' E 135°17'0 0.0
2016-Jun-22 03:29N 34°42' E 135°17'0 0.0
2016-Jun-22 02:23N 34°42' E 135°17'  
Track history (hours):
 
Tides and Currents Weather Stations Pressure Air Temp Water Temp Dewpoint Dewpoint Depression Visibility Wind Speed Wind Dir Waves Ship Positions

Sunflower Gold

Last reported at 2016-Jul-02 01:23 UTC. Time now 2016-Jul-02 02:10 UTC.
Position N 34°42' E 135°17'.

Length 166 m; draft 5.8 m.

Type: Passenger vessel. MMSI: 431000331.

Date/timePositionNaut miles runAvg speedWind from/ knotsBaromVisibWave heightAir tempDewpointWater temp
2016-Jul-02 01:23N 34°42' E 135°17'0 0.0
2016-Jul-02 00:29N 34°42' E 135°17'0 0.0
2016-Jul-01 23:29N 34°42' E 135°17'1 1.1
2016-Jul-01 22:33N 34°41' E 135°18'1514.5
2016-Jul-01 21:33N 34°37' E 135°01'7 0.2
2016-Jun-30 11:23N 34°35' E 134°53'1518.4
2016-Jun-30 10:33N 34°36' E 135°11'7 7.2
2016-Jun-30 09:32N 34°42' E 135°17'0 0.0
2016-Jun-30 08:32N 34°42' E 135°17'0 0.0
2016-Jun-30 07:32N 34°42' E 135°17'0 0.0
2016-Jun-30 06:14N 34°42' E 135°17'0 0.0
2016-Jun-30 05:32N 34°42' E 135°17'0 0.0
2016-Jun-30 04:32N 34°42' E 135°17'0 0.0
2016-Jun-30 03:26N 34°42' E 135°17'0 0.0
2016-Jun-30 02:32N 34°42' E 135°17'0 0.0
2016-Jun-30 01:26N 34°42' E 135°17'0 0.0
2016-Jun-30 00:32N 34°42' E 135°17'0 0.0
2016-Jun-29 23:32N 34°42' E 135°17'0 0.0
2016-Jun-29 22:26N 34°42' E 135°17'0 0.1
2016-Jun-29 21:34N 34°42' E 135°17'1413.6
2016-Jun-29 20:33N 34°37' E 135°02'10 0.3
2016-Jun-28 11:32N 34°35' E 134°50'1818.0
2016-Jun-28 10:33N 34°37' E 135°11'7 6.6
2016-Jun-28 09:28N 34°42' E 135°17'0 0.0
2016-Jun-28 08:22N 34°42' E 135°17'0 0.0
2016-Jun-28 07:28N 34°42' E 135°17'0 0.0
2016-Jun-28 06:22N 34°42' E 135°17'0 0.0
2016-Jun-28 04:28N 34°42' E 135°17'0 0.0
2016-Jun-28 03:28N 34°42' E 135°17'0 0.0
2016-Jun-28 02:28N 34°42' E 135°17'0 0.0
2016-Jun-28 01:28N 34°42' E 135°17'0 0.0
2016-Jun-28 00:22N 34°42' E 135°17'0 0.0
2016-Jun-27 23:28N 34°42' E 135°17'0 0.0
2016-Jun-27 22:28N 34°42' E 135°17'0 0.0
2016-Jun-27 21:33N 34°42' E 135°17'1211.8
2016-Jun-27 20:33N 34°34' E 135°06'1917.8
2016-Jun-27 19:30N 34°30' E 134°44'8 0.3
2016-Jun-26 13:03N 34°35' E 134°51'1122.5
2016-Jun-26 12:33N 34°36' E 135°05'1110.6
2016-Jun-26 11:28N 34°42' E 135°17'0 0.0
2016-Jun-26 10:28N 34°42' E 135°17'0 0.0
2016-Jun-26 09:28N 34°42' E 135°17'0 0.0
2016-Jun-26 08:28N 34°42' E 135°17'0 0.0
2016-Jun-26 07:28N 34°42' E 135°17'0 0.0
2016-Jun-26 06:22N 34°42' E 135°17'0 0.0
2016-Jun-26 05:28N 34°42' E 135°17'0 0.0
2016-Jun-26 04:22N 34°42' E 135°17'0 0.0
2016-Jun-26 03:28N 34°42' E 135°17'0 0.0
2016-Jun-26 02:22N 34°42' E 135°17'0 0.0
2016-Jun-26 01:28N 34°42' E 135°17'0 0.0
2016-Jun-26 00:28N 34°42' E 135°17'0 0.0
2016-Jun-25 23:28N 34°42' E 135°17'1 0.8
2016-Jun-25 22:33N 34°42' E 135°18'1313.2
2016-Jun-25 21:33N 34°35' E 135°04'9 0.3
2016-Jun-24 12:10N 34°35' E 134°53'1219.6
2016-Jun-24 11:33N 34°36' E 135°08'10 9.6
2016-Jun-24 10:33N 34°42' E 135°17'0 0.0
2016-Jun-24 09:24N 34°42' E 135°17'0 0.0
2016-Jun-24 08:24N 34°42' E 135°17'0 0.0
2016-Jun-24 07:30N 34°42' E 135°17'0 0.0
2016-Jun-24 04:30N 34°42' E 135°17'0 0.0
2016-Jun-24 03:30N 34°42' E 135°17'0 0.0
2016-Jun-24 02:24N 34°42' E 135°17'0 0.0
2016-Jun-24 01:30N 34°42' E 135°17'0 0.0
2016-Jun-24 00:24N 34°42' E 135°17'0 0.0
2016-Jun-23 23:30N 34°42' E 135°17'0 0.0
2016-Jun-23 22:30N 34°42' E 135°17'0 0.0
2016-Jun-23 21:33N 34°42' E 135°17'1110.7
2016-Jun-23 20:33N 34°35' E 135°07'12 0.4
2016-Jun-22 11:18N 34°35' E 134°53'1520.7
2016-Jun-22 10:33N 34°36' E 135°11'7 3.4
2016-Jun-22 08:28N 34°42' E 135°17'0 0.0
2016-Jun-22 05:29N 34°42' E 135°17'0 0.0
2016-Jun-22 03:29N 34°42' E 135°17'0 0.0
2016-Jun-22 02:23N 34°42' E 135°17'  

Dump ship's entire track history